sensor_id;sensor_type;location;lat;lon;timestamp;temperature;humidity
1453;DHT22;720;47.738;7.998;2022-07-29T00:00:41;17.80;97.50
1453;DHT22;720;47.738;7.998;2022-07-29T00:03:13;17.80;97.70
1453;DHT22;720;47.738;7.998;2022-07-29T00:05:40;17.70;97.70
1453;DHT22;720;47.738;7.998;2022-07-29T00:08:06;17.70;97.80
1453;DHT22;720;47.738;7.998;2022-07-29T00:10:32;17.60;97.80
1453;DHT22;720;47.738;7.998;2022-07-29T00:12:58;17.60;98.00
1453;DHT22;720;47.738;7.998;2022-07-29T00:15:24;17.50;98.00
1453;DHT22;720;47.738;7.998;2022-07-29T00:17:50;17.30;98.00
1453;DHT22;720;47.738;7.998;2022-07-29T00:20:15;17.30;98.30
1453;DHT22;720;47.738;7.998;2022-07-29T00:22:42;17.20;98.70
1453;DHT22;720;47.738;7.998;2022-07-29T00:25:08;17.20;98.70
1453;DHT22;720;47.738;7.998;2022-07-29T00:27:35;17.20;98.70
1453;DHT22;720;47.738;7.998;2022-07-29T00:30:02;17.20;98.60
1453;DHT22;720;47.738;7.998;2022-07-29T00:32:28;17.20;98.70
1453;DHT22;720;47.738;7.998;2022-07-29T00:34:54;17.20;98.90
1453;DHT22;720;47.738;7.998;2022-07-29T00:37:38;17.20;98.90
1453;DHT22;720;47.738;7.998;2022-07-29T00:40:04;17.10;98.90
1453;DHT22;720;47.738;7.998;2022-07-29T00:42:30;17.10;98.90
1453;DHT22;720;47.738;7.998;2022-07-29T00:44:55;17.10;98.90
1453;DHT22;720;47.738;7.998;2022-07-29T00:47:21;17.00;99.10
1453;DHT22;720;47.738;7.998;2022-07-29T00:49:47;17.00;99.20
1453;DHT22;720;47.738;7.998;2022-07-29T00:52:13;17.00;99.00
1453;DHT22;720;47.738;7.998;2022-07-29T00:54:39;17.00;99.10
1453;DHT22;720;47.738;7.998;2022-07-29T00:57:06;17.00;99.30
1453;DHT22;720;47.738;7.998;2022-07-29T00:59:33;17.00;99.40
1453;DHT22;720;47.738;7.998;2022-07-29T01:01:58;17.00;99.50
1453;DHT22;720;47.738;7.998;2022-07-29T01:04:24;17.00;99.50
1453;DHT22;720;47.738;7.998;2022-07-29T01:06:50;16.90;99.50
1453;DHT22;720;47.738;7.998;2022-07-29T01:09:18;16.90;99.50
1453;DHT22;720;47.738;7.998;2022-07-29T01:11:45;16.90;99.60
1453;DHT22;720;47.738;7.998;2022-07-29T01:14:12;16.90;99.50
1453;DHT22;720;47.738;7.998;2022-07-29T01:16:59;17.00;99.30
1453;DHT22;720;47.738;7.998;2022-07-29T01:30:26;17.00;99.90
1453;DHT22;720;47.738;7.998;2022-07-29T01:32:56;17.00;99.90
1453;DHT22;720;47.738;7.998;2022-07-29T01:35:26;17.10;99.80
1453;DHT22;720;47.738;7.998;2022-07-29T01:40:31;17.10;99.70
1453;DHT22;720;47.738;7.998;2022-07-29T01:43:00;17.20;99.80
1453;DHT22;720;47.738;7.998;2022-07-29T01:45:50;17.30;99.80
1453;DHT22;720;47.738;7.998;2022-07-29T01:48:22;17.30;99.60
1453;DHT22;720;47.738;7.998;2022-07-29T01:50:52;17.30;99.40
1453;DHT22;720;47.738;7.998;2022-07-29T01:53:33;17.30;99.70
1453;DHT22;720;47.738;7.998;2022-07-29T01:56:00;17.40;99.90
1453;DHT22;720;47.738;7.998;2022-07-29T01:58:28;17.40;99.80
1453;DHT22;720;47.738;7.998;2022-07-29T02:00:56;17.50;99.90
1453;DHT22;720;47.738;7.998;2022-07-29T02:03:23;17.50;99.90
1453;DHT22;720;47.738;7.998;2022-07-29T02:05:49;17.60;99.90
1453;DHT22;720;47.738;7.998;2022-07-29T02:08:16;17.50;99.80
1453;DHT22;720;47.738;7.998;2022-07-29T02:10:44;17.50;99.90
1453;DHT22;720;47.738;7.998;2022-07-29T02:13:12;17.60;99.90
1453;DHT22;720;47.738;7.998;2022-07-29T02:15:41;17.50;99.90
1453;DHT22;720;47.738;7.998;2022-07-29T02:18:11;17.50;99.90
1453;DHT22;720;47.738;7.998;2022-07-29T02:20:39;17.60;99.90
1453;DHT22;720;47.738;7.998;2022-07-29T02:23:07;17.60;99.90
1453;DHT22;720;47.738;7.998;2022-07-29T02:25:36;17.50;99.90
1453;DHT22;720;47.738;7.998;2022-07-29T02:28:03;17.50;99.90
1453;DHT22;720;47.738;7.998;2022-07-29T02:30:31;17.50;99.90
1453;DHT22;720;47.738;7.998;2022-07-29T02:32:58;17.40;99.90
1453;DHT22;720;47.738;7.998;2022-07-29T02:35:24;17.40;99.90
1453;DHT22;720;47.738;7.998;2022-07-29T02:37:51;17.40;99.90
1453;DHT22;720;47.738;7.998;2022-07-29T02:40:38;17.40;99.90
1453;DHT22;720;47.738;7.998;2022-07-29T02:43:06;17.50;99.90
1453;DHT22;720;47.738;7.998;2022-07-29T02:45:33;17.50;99.90
1453;DHT22;720;47.738;7.998;2022-07-29T02:48:06;17.50;99.90
1453;DHT22;720;47.738;7.998;2022-07-29T02:50:37;17.50;99.90
1453;DHT22;720;47.738;7.998;2022-07-29T02:53:22;17.50;99.90
1453;DHT22;720;47.738;7.998;2022-07-29T02:55:54;17.40;99.90
1453;DHT22;720;47.738;7.998;2022-07-29T02:58:34;17.30;99.90
1453;DHT22;720;47.738;7.998;2022-07-29T03:01:15;17.30;99.90
1453;DHT22;720;47.738;7.998;2022-07-29T03:03:44;17.20;99.90
1453;DHT22;720;47.738;7.998;2022-07-29T03:06:12;17.10;99.90
1453;DHT22;720;47.738;7.998;2022-07-29T03:08:39;17.00;99.90
1453;DHT22;720;47.738;7.998;2022-07-29T03:11:05;17.00;99.90
1453;DHT22;720;47.738;7.998;2022-07-29T03:13:32;17.00;99.90
1453;DHT22;720;47.738;7.998;2022-07-29T03:15:59;17.00;99.90
1453;DHT22;720;47.738;7.998;2022-07-29T03:18:25;17.00;99.90
1453;DHT22;720;47.738;7.998;2022-07-29T03:20:51;17.00;99.90
1453;DHT22;720;47.738;7.998;2022-07-29T03:23:20;17.10;99.90
1453;DHT22;720;47.738;7.998;2022-07-29T03:25:48;17.10;99.90
1453;DHT22;720;47.738;7.998;2022-07-29T03:28:14;17.10;99.90
1453;DHT22;720;47.738;7.998;2022-07-29T03:30:39;17.10;99.90
1453;DHT22;720;47.738;7.998;2022-07-29T03:33:05;17.00;99.90
1453;DHT22;720;47.738;7.998;2022-07-29T03:35:31;17.00;99.90
1453;DHT22;720;47.738;7.998;2022-07-29T03:37:57;17.00;99.90
1453;DHT22;720;47.738;7.998;2022-07-29T03:40:35;16.90;99.90
1453;DHT22;720;47.738;7.998;2022-07-29T03:43:02;17.00;99.90
1453;DHT22;720;47.738;7.998;2022-07-29T03:45:29;16.90;99.90
1453;DHT22;720;47.738;7.998;2022-07-29T03:48:01;16.90;99.90
1453;DHT22;720;47.738;7.998;2022-07-29T03:50:28;17.00;99.90
1453;DHT22;720;47.738;7.998;2022-07-29T03:52:55;17.00;99.90
1453;DHT22;720;47.738;7.998;2022-07-29T03:55:21;17.00;99.90
1453;DHT22;720;47.738;7.998;2022-07-29T03:57:48;17.00;99.90
1453;DHT22;720;47.738;7.998;2022-07-29T04:00:15;17.00;99.90
1453;DHT22;720;47.738;7.998;2022-07-29T04:02:41;17.00;99.90
1453;DHT22;720;47.738;7.998;2022-07-29T04:05:12;17.00;99.90
1453;DHT22;720;47.738;7.998;2022-07-29T04:07:38;17.10;99.90
1453;DHT22;720;47.738;7.998;2022-07-29T04:10:04;17.10;99.90
1453;DHT22;720;47.738;7.998;2022-07-29T04:12:30;17.10;99.90
1453;DHT22;720;47.738;7.998;2022-07-29T04:14:56;17.20;99.90
1453;DHT22;720;47.738;7.998;2022-07-29T04:17:21;17.20;99.90
1453;DHT22;720;47.738;7.998;2022-07-29T04:19:47;17.30;99.90
1453;DHT22;720;47.738;7.998;2022-07-29T04:22:12;17.40;99.90
1453;DHT22;720;47.738;7.998;2022-07-29T04:24:38;17.40;99.90
1453;DHT22;720;47.738;7.998;2022-07-29T04:27:03;17.50;99.90
1453;DHT22;720;47.738;7.998;2022-07-29T04:29:29;17.50;99.90
1453;DHT22;720;47.738;7.998;2022-07-29T04:31:55;17.60;99.90
1453;DHT22;720;47.738;7.998;2022-07-29T04:34:20;17.70;99.90
1453;DHT22;720;47.738;7.998;2022-07-29T04:36:46;17.80;99.90
1453;DHT22;720;47.738;7.998;2022-07-29T04:39:12;17.80;99.90
1453;DHT22;720;47.738;7.998;2022-07-29T04:41:38;17.90;99.90
1453;DHT22;720;47.738;7.998;2022-07-29T04:44:03;17.90;99.90
1453;DHT22;720;47.738;7.998;2022-07-29T04:46:31;18.00;99.90
1453;DHT22;720;47.738;7.998;2022-07-29T04:48:56;18.00;99.90
1453;DHT22;720;47.738;7.998;2022-07-29T04:51:22;18.10;99.90
1453;DHT22;720;47.738;7.998;2022-07-29T04:53:48;18.20;99.90
1453;DHT22;720;47.738;7.998;2022-07-29T04:56:13;18.30;99.90
1453;DHT22;720;47.738;7.998;2022-07-29T04:58:39;18.40;99.90
1453;DHT22;720;47.738;7.998;2022-07-29T05:01:05;18.60;99.90
1453;DHT22;720;47.738;7.998;2022-07-29T05:03:30;18.70;99.90
1453;DHT22;720;47.738;7.998;2022-07-29T05:05:56;18.80;99.90
1453;DHT22;720;47.738;7.998;2022-07-29T05:08:21;19.00;99.90
1453;DHT22;720;47.738;7.998;2022-07-29T05:10:47;19.10;99.90
1453;DHT22;720;47.738;7.998;2022-07-29T05:13:13;19.10;99.90
1453;DHT22;720;47.738;7.998;2022-07-29T05:15:38;19.20;99.80
1453;DHT22;720;47.738;7.998;2022-07-29T05:18:04;19.20;99.50
1453;DHT22;720;47.738;7.998;2022-07-29T05:20:31;19.20;99.20
1453;DHT22;720;47.738;7.998;2022-07-29T05:23:02;19.20;99.10
1453;DHT22;720;47.738;7.998;2022-07-29T05:25:29;19.20;99.00
1453;DHT22;720;47.738;7.998;2022-07-29T05:27:55;19.20;98.90
1453;DHT22;720;47.738;7.998;2022-07-29T05:30:21;19.20;98.60
1453;DHT22;720;47.738;7.998;2022-07-29T05:32:47;19.30;98.70
1453;DHT22;720;47.738;7.998;2022-07-29T05:35:13;19.30;98.80
1453;DHT22;720;47.738;7.998;2022-07-29T05:37:39;19.40;99.00
1453;DHT22;720;47.738;7.998;2022-07-29T05:40:05;19.40;98.70
1453;DHT22;720;47.738;7.998;2022-07-29T05:42:31;19.40;98.50
1453;DHT22;720;47.738;7.998;2022-07-29T05:44:57;19.50;98.80
1453;DHT22;720;47.738;7.998;2022-07-29T05:47:24;19.50;98.60
1453;DHT22;720;47.738;7.998;2022-07-29T05:49:50;19.80;98.70
1453;DHT22;720;47.738;7.998;2022-07-29T05:52:16;20.10;98.30
1453;DHT22;720;47.738;7.998;2022-07-29T05:54:42;20.50;96.80
1453;DHT22;720;47.738;7.998;2022-07-29T05:57:07;20.80;95.60
1453;DHT22;720;47.738;7.998;2022-07-29T05:59:37;21.00;95.10
1453;DHT22;720;47.738;7.998;2022-07-29T06:02:03;21.20;94.70
1453;DHT22;720;47.738;7.998;2022-07-29T06:04:31;21.20;94.70
1453;DHT22;720;47.738;7.998;2022-07-29T06:06:56;21.20;94.70
1453;DHT22;720;47.738;7.998;2022-07-29T06:09:22;21.20;94.80
1453;DHT22;720;47.738;7.998;2022-07-29T06:11:48;21.20;94.80
1453;DHT22;720;47.738;7.998;2022-07-29T06:14:14;21.20;95.00
1453;DHT22;720;47.738;7.998;2022-07-29T06:16:39;21.40;95.30
1453;DHT22;720;47.738;7.998;2022-07-29T06:19:05;21.70;95.00
1453;DHT22;720;47.738;7.998;2022-07-29T06:21:31;22.00;94.20
1453;DHT22;720;47.738;7.998;2022-07-29T06:23:56;22.10;93.50
1453;DHT22;720;47.738;7.998;2022-07-29T06:26:22;22.20;93.00
1453;DHT22;720;47.738;7.998;2022-07-29T06:28:48;22.10;92.80
1453;DHT22;720;47.738;7.998;2022-07-29T06:31:14;21.90;93.10
1453;DHT22;720;47.738;7.998;2022-07-29T06:33:39;21.80;93.60
1453;DHT22;720;47.738;7.998;2022-07-29T06:36:05;21.70;94.00
1453;DHT22;720;47.738;7.998;2022-07-29T06:38:32;21.70;94.40
1453;DHT22;720;47.738;7.998;2022-07-29T06:40:59;21.70;94.50
1453;DHT22;720;47.738;7.998;2022-07-29T06:43:33;21.70;94.50
1453;DHT22;720;47.738;7.998;2022-07-29T06:46:06;21.80;95.10
1453;DHT22;720;47.738;7.998;2022-07-29T06:48:32;21.90;94.60
1453;DHT22;720;47.738;7.998;2022-07-29T06:50:58;22.40;94.60
1453;DHT22;720;47.738;7.998;2022-07-29T06:53:24;22.90;93.70
1453;DHT22;720;47.738;7.998;2022-07-29T06:55:50;23.40;93.20
1453;DHT22;720;47.738;7.998;2022-07-29T06:58:16;23.70;92.70
1453;DHT22;720;47.738;7.998;2022-07-29T07:00:44;24.20;91.80
1453;DHT22;720;47.738;7.998;2022-07-29T07:03:10;24.70;90.90
1453;DHT22;720;47.738;7.998;2022-07-29T07:05:36;25.10;88.80
1453;DHT22;720;47.738;7.998;2022-07-29T07:08:02;25.40;88.30
1453;DHT22;720;47.738;7.998;2022-07-29T07:10:28;25.40;85.80
1453;DHT22;720;47.738;7.998;2022-07-29T07:12:54;25.10;84.90
1453;DHT22;720;47.738;7.998;2022-07-29T07:15:20;24.90;85.80
1453;DHT22;720;47.738;7.998;2022-07-29T07:17:49;24.60;86.60
1453;DHT22;720;47.738;7.998;2022-07-29T07:20:16;24.10;87.70
1453;DHT22;720;47.738;7.998;2022-07-29T07:22:42;23.70;88.70
1453;DHT22;720;47.738;7.998;2022-07-29T07:25:08;23.30;90.70
1453;DHT22;720;47.738;7.998;2022-07-29T07:27:34;23.10;91.10
1453;DHT22;720;47.738;7.998;2022-07-29T07:30:01;22.90;91.60
1453;DHT22;720;47.738;7.998;2022-07-29T07:32:27;22.70;93.00
1453;DHT22;720;47.738;7.998;2022-07-29T07:34:52;22.50;93.10
1453;DHT22;720;47.738;7.998;2022-07-29T07:37:18;22.40;93.70
1453;DHT22;720;47.738;7.998;2022-07-29T07:39:46;22.40;94.10
1453;DHT22;720;47.738;7.998;2022-07-29T07:42:11;22.30;94.70
1453;DHT22;720;47.738;7.998;2022-07-29T07:44:39;22.30;95.00
1453;DHT22;720;47.738;7.998;2022-07-29T07:47:05;22.10;92.60
1453;DHT22;720;47.738;7.998;2022-07-29T07:49:31;22.00;92.30
1453;DHT22;720;47.738;7.998;2022-07-29T07:51:56;21.80;93.00
1453;DHT22;720;47.738;7.998;2022-07-29T07:54:22;21.60;93.10
1453;DHT22;720;47.738;7.998;2022-07-29T07:56:48;21.30;93.10
1453;DHT22;720;47.738;7.998;2022-07-29T07:59:16;21.00;94.00
1453;DHT22;720;47.738;7.998;2022-07-29T08:01:42;20.70;94.70
1453;DHT22;720;47.738;7.998;2022-07-29T08:04:08;20.50;95.60
1453;DHT22;720;47.738;7.998;2022-07-29T08:06:34;20.40;96.00
1453;DHT22;720;47.738;7.998;2022-07-29T08:09:02;20.20;94.40
1453;DHT22;720;47.738;7.998;2022-07-29T08:11:27;20.40;95.80
1453;DHT22;720;47.738;7.998;2022-07-29T08:13:54;20.60;96.00
1453;DHT22;720;47.738;7.998;2022-07-29T08:16:20;20.80;96.10
1453;DHT22;720;47.738;7.998;2022-07-29T08:18:46;20.80;96.80
1453;DHT22;720;47.738;7.998;2022-07-29T08:21:13;20.80;96.50
1453;DHT22;720;47.738;7.998;2022-07-29T08:23:39;20.90;97.10
1453;DHT22;720;47.738;7.998;2022-07-29T08:26:10;20.90;96.50
1453;DHT22;720;47.738;7.998;2022-07-29T08:28:41;21.00;95.90
1453;DHT22;720;47.738;7.998;2022-07-29T08:31:10;21.10;97.00
1453;DHT22;720;47.738;7.998;2022-07-29T08:33:35;21.20;96.60
1453;DHT22;720;47.738;7.998;2022-07-29T08:36:01;21.30;96.60
1453;DHT22;720;47.738;7.998;2022-07-29T08:38:27;21.40;96.40
1453;DHT22;720;47.738;7.998;2022-07-29T08:40:53;21.50;97.00
1453;DHT22;720;47.738;7.998;2022-07-29T08:43:19;21.40;96.20
1453;DHT22;720;47.738;7.998;2022-07-29T08:45:50;21.50;95.40
1453;DHT22;720;47.738;7.998;2022-07-29T08:48:18;21.50;96.50
1453;DHT22;720;47.738;7.998;2022-07-29T08:50:45;21.60;96.80
1453;DHT22;720;47.738;7.998;2022-07-29T08:53:13;21.60;96.30
1453;DHT22;720;47.738;7.998;2022-07-29T08:55:43;21.80;95.40
1453;DHT22;720;47.738;7.998;2022-07-29T08:58:09;21.90;95.30
1453;DHT22;720;47.738;7.998;2022-07-29T09:00:37;21.90;95.50
1453;DHT22;720;47.738;7.998;2022-07-29T09:03:07;22.10;95.50
1453;DHT22;720;47.738;7.998;2022-07-29T09:05:34;22.20;95.40
1453;DHT22;720;47.738;7.998;2022-07-29T09:08:01;22.20;95.50
1453;DHT22;720;47.738;7.998;2022-07-29T09:10:27;22.30;94.90
1453;DHT22;720;47.738;7.998;2022-07-29T09:12:54;22.30;94.80
1453;DHT22;720;47.738;7.998;2022-07-29T09:15:20;22.40;94.80
1453;DHT22;720;47.738;7.998;2022-07-29T09:17:48;22.50;93.80
1453;DHT22;720;47.738;7.998;2022-07-29T09:20:21;22.60;94.20
1453;DHT22;720;47.738;7.998;2022-07-29T09:22:49;22.80;93.70
1453;DHT22;720;47.738;7.998;2022-07-29T09:25:35;22.90;93.70
1453;DHT22;720;47.738;7.998;2022-07-29T09:28:15;23.10;92.00
1453;DHT22;720;47.738;7.998;2022-07-29T09:30:59;23.50;91.70
1453;DHT22;720;47.738;7.998;2022-07-29T09:33:32;23.90;91.90
1453;DHT22;720;47.738;7.998;2022-07-29T09:36:09;24.40;90.10
1453;DHT22;720;47.738;7.998;2022-07-29T09:38:42;24.90;89.20
1453;DHT22;720;47.738;7.998;2022-07-29T09:41:10;25.30;89.30
1453;DHT22;720;47.738;7.998;2022-07-29T09:43:36;25.90;87.30
1453;DHT22;720;47.738;7.998;2022-07-29T09:46:13;26.80;81.10
1453;DHT22;720;47.738;7.998;2022-07-29T09:48:40;27.70;75.50
1453;DHT22;720;47.738;7.998;2022-07-29T09:51:19;28.10;74.10
1453;DHT22;720;47.738;7.998;2022-07-29T09:53:46;27.80;73.50
1453;DHT22;720;47.738;7.998;2022-07-29T09:56:11;27.70;71.00
1453;DHT22;720;47.738;7.998;2022-07-29T09:58:39;27.80;72.20
1453;DHT22;720;47.738;7.998;2022-07-29T10:01:05;27.70;72.70
1453;DHT22;720;47.738;7.998;2022-07-29T10:03:30;27.30;69.50
1453;DHT22;720;47.738;7.998;2022-07-29T10:06:07;26.80;71.60
1453;DHT22;720;47.738;7.998;2022-07-29T10:08:36;26.40;73.20
1453;DHT22;720;47.738;7.998;2022-07-29T10:11:18;26.40;75.80
1453;DHT22;720;47.738;7.998;2022-07-29T10:13:46;26.50;75.70
1453;DHT22;720;47.738;7.998;2022-07-29T10:16:13;26.60;71.70
1453;DHT22;720;47.738;7.998;2022-07-29T10:18:40;26.90;69.90
1453;DHT22;720;47.738;7.998;2022-07-29T10:21:06;28.00;68.80
1453;DHT22;720;47.738;7.998;2022-07-29T10:23:34;29.30;67.40
1453;DHT22;720;47.738;7.998;2022-07-29T10:26:01;30.70;59.80
1453;DHT22;720;47.738;7.998;2022-07-29T10:28:27;31.90;57.70
1453;DHT22;720;47.738;7.998;2022-07-29T10:31:00;32.80;55.90
1453;DHT22;720;47.738;7.998;2022-07-29T10:39:50;32.50;48.40
1453;DHT22;720;47.738;7.998;2022-07-29T10:42:20;31.60;51.20
1453;DHT22;720;47.738;7.998;2022-07-29T10:44:48;31.30;51.20
1453;DHT22;720;47.738;7.998;2022-07-29T10:47:25;31.00;51.20
1453;DHT22;720;47.738;7.998;2022-07-29T10:50:02;30.60;49.90
1453;DHT22;720;47.738;7.998;2022-07-29T10:55:37;30.70;51.00
1453;DHT22;720;47.738;7.998;2022-07-29T11:00:40;29.80;49.90
1453;DHT22;720;47.738;7.998;2022-07-29T11:03:06;29.40;51.80
1453;DHT22;720;47.738;7.998;2022-07-29T11:05:52;29.00;52.30
1453;DHT22;720;47.738;7.998;2022-07-29T11:08:20;28.70;54.40
1453;DHT22;720;47.738;7.998;2022-07-29T11:10:52;28.40;54.40
1453;DHT22;720;47.738;7.998;2022-07-29T11:16:09;27.60;54.10
1453;DHT22;720;47.738;7.998;2022-07-29T11:18:34;27.40;56.00
1453;DHT22;720;47.738;7.998;2022-07-29T11:21:00;27.40;55.80
1453;DHT22;720;47.738;7.998;2022-07-29T11:23:28;27.30;54.30
1453;DHT22;720;47.738;7.998;2022-07-29T11:26:15;27.20;57.80
1453;DHT22;720;47.738;7.998;2022-07-29T11:31:35;26.80;55.90
1453;DHT22;720;47.738;7.998;2022-07-29T11:47:22;26.50;57.00
1453;DHT22;720;47.738;7.998;2022-07-29T11:49:50;26.50;56.30
1453;DHT22;720;47.738;7.998;2022-07-29T11:52:18;26.50;58.70
1453;DHT22;720;47.738;7.998;2022-07-29T11:54:44;26.30;57.10
1453;DHT22;720;47.738;7.998;2022-07-29T11:57:13;26.30;58.90
1453;DHT22;720;47.738;7.998;2022-07-29T11:59:40;26.30;58.20
1453;DHT22;720;47.738;7.998;2022-07-29T12:02:10;26.20;59.00
1453;DHT22;720;47.738;7.998;2022-07-29T12:04:55;26.10;59.60
1453;DHT22;720;47.738;7.998;2022-07-29T12:07:32;26.10;58.60
1453;DHT22;720;47.738;7.998;2022-07-29T12:09:58;26.10;60.70
1453;DHT22;720;47.738;7.998;2022-07-29T12:12:24;25.90;62.70
1453;DHT22;720;47.738;7.998;2022-07-29T12:14:49;25.30;60.50
1453;DHT22;720;47.738;7.998;2022-07-29T12:17:29;25.30;65.00
1453;DHT22;720;47.738;7.998;2022-07-29T12:19:56;25.40;65.10
1453;DHT22;720;47.738;7.998;2022-07-29T12:22:35;25.50;65.90
1453;DHT22;720;47.738;7.998;2022-07-29T12:25:08;25.70;63.50
1453;DHT22;720;47.738;7.998;2022-07-29T12:27:36;25.60;63.40
1453;DHT22;720;47.738;7.998;2022-07-29T12:30:10;25.70;64.30
1453;DHT22;720;47.738;7.998;2022-07-29T12:32:45;25.20;64.10
1453;DHT22;720;47.738;7.998;2022-07-29T12:35:18;24.80;64.50
1453;DHT22;720;47.738;7.998;2022-07-29T12:37:45;24.70;67.10
1453;DHT22;720;47.738;7.998;2022-07-29T12:40:15;24.70;70.70
1453;DHT22;720;47.738;7.998;2022-07-29T12:45:29;24.20;70.90
1453;DHT22;720;47.738;7.998;2022-07-29T12:47:56;24.10;73.60
1453;DHT22;720;47.738;7.998;2022-07-29T12:50:22;23.80;71.80
1453;DHT22;720;47.738;7.998;2022-07-29T12:52:48;23.60;72.00
1453;DHT22;720;47.738;7.998;2022-07-29T12:55:14;23.60;72.00
1453;DHT22;720;47.738;7.998;2022-07-29T12:57:47;23.60;73.30
1453;DHT22;720;47.738;7.998;2022-07-29T13:00:15;23.60;71.30
1453;DHT22;720;47.738;7.998;2022-07-29T13:02:42;23.40;72.00
1453;DHT22;720;47.738;7.998;2022-07-29T13:05:09;23.40;71.70
1453;DHT22;720;47.738;7.998;2022-07-29T13:07:37;23.30;70.30
1453;DHT22;720;47.738;7.998;2022-07-29T13:10:14;23.50;69.00
1453;DHT22;720;47.738;7.998;2022-07-29T13:13:11;23.40;70.30
1453;DHT22;720;47.738;7.998;2022-07-29T13:15:38;23.50;68.60
1453;DHT22;720;47.738;7.998;2022-07-29T13:18:05;23.50;69.00
1453;DHT22;720;47.738;7.998;2022-07-29T13:20:50;23.40;67.90
1453;DHT22;720;47.738;7.998;2022-07-29T13:23:16;23.30;67.80
1453;DHT22;720;47.738;7.998;2022-07-29T13:25:41;23.30;67.50
1453;DHT22;720;47.738;7.998;2022-07-29T13:28:07;23.30;67.70
1453;DHT22;720;47.738;7.998;2022-07-29T13:30:33;23.30;68.40
1453;DHT22;720;47.738;7.998;2022-07-29T13:32:58;23.40;66.20
1453;DHT22;720;47.738;7.998;2022-07-29T13:35:24;23.10;66.00
1453;DHT22;720;47.738;7.998;2022-07-29T13:37:50;23.20;67.40
1453;DHT22;720;47.738;7.998;2022-07-29T13:40:15;23.20;67.60
1453;DHT22;720;47.738;7.998;2022-07-29T13:42:41;23.30;67.80
1453;DHT22;720;47.738;7.998;2022-07-29T13:45:08;23.40;65.90
1453;DHT22;720;47.738;7.998;2022-07-29T13:47:34;23.50;67.70
1453;DHT22;720;47.738;7.998;2022-07-29T13:50:01;23.80;67.20
1453;DHT22;720;47.738;7.998;2022-07-29T13:52:27;23.90;67.30
1453;DHT22;720;47.738;7.998;2022-07-29T13:54:52;24.10;64.90
1453;DHT22;720;47.738;7.998;2022-07-29T13:57:18;24.30;64.20
1453;DHT22;720;47.738;7.998;2022-07-29T13:59:44;24.30;62.70
1453;DHT22;720;47.738;7.998;2022-07-29T14:02:11;24.30;64.80
1453;DHT22;720;47.738;7.998;2022-07-29T14:04:37;24.40;62.30
1453;DHT22;720;47.738;7.998;2022-07-29T14:07:03;24.40;63.30
1453;DHT22;720;47.738;7.998;2022-07-29T14:09:30;24.50;62.50
1453;DHT22;720;47.738;7.998;2022-07-29T14:11:55;24.60;65.30
1453;DHT22;720;47.738;7.998;2022-07-29T14:14:21;24.60;65.90
1453;DHT22;720;47.738;7.998;2022-07-29T14:16:47;24.60;64.20
1453;DHT22;720;47.738;7.998;2022-07-29T14:19:13;24.60;65.60
1453;DHT22;720;47.738;7.998;2022-07-29T14:21:38;24.40;66.10
1453;DHT22;720;47.738;7.998;2022-07-29T14:24:05;24.40;67.00
1453;DHT22;720;47.738;7.998;2022-07-29T14:26:31;24.30;67.20
1453;DHT22;720;47.738;7.998;2022-07-29T14:28:57;24.30;67.30
1453;DHT22;720;47.738;7.998;2022-07-29T14:31:22;24.30;68.00
1453;DHT22;720;47.738;7.998;2022-07-29T14:33:48;24.20;67.20
1453;DHT22;720;47.738;7.998;2022-07-29T14:36:14;24.10;66.80
1453;DHT22;720;47.738;7.998;2022-07-29T14:38:39;24.10;68.00
1453;DHT22;720;47.738;7.998;2022-07-29T14:41:07;24.30;67.70
1453;DHT22;720;47.738;7.998;2022-07-29T14:43:33;24.40;68.70
1453;DHT22;720;47.738;7.998;2022-07-29T14:46:00;24.50;66.50
1453;DHT22;720;47.738;7.998;2022-07-29T14:48:26;24.60;67.80
1453;DHT22;720;47.738;7.998;2022-07-29T14:50:51;24.60;66.50
1453;DHT22;720;47.738;7.998;2022-07-29T14:53:17;24.70;66.70
1453;DHT22;720;47.738;7.998;2022-07-29T14:55:44;24.60;66.10
1453;DHT22;720;47.738;7.998;2022-07-29T14:58:09;24.50;66.40
1453;DHT22;720;47.738;7.998;2022-07-29T15:00:35;24.50;67.20
1453;DHT22;720;47.738;7.998;2022-07-29T15:03:03;24.40;66.90
1453;DHT22;720;47.738;7.998;2022-07-29T15:05:32;24.20;65.40
1453;DHT22;720;47.738;7.998;2022-07-29T15:07:58;24.20;66.60
1453;DHT22;720;47.738;7.998;2022-07-29T15:10:24;23.90;66.60
1453;DHT22;720;47.738;7.998;2022-07-29T15:12:52;23.90;66.60
1453;DHT22;720;47.738;7.998;2022-07-29T15:15:18;23.70;65.10
1453;DHT22;720;47.738;7.998;2022-07-29T15:17:44;23.40;67.90
1453;DHT22;720;47.738;7.998;2022-07-29T15:20:10;23.30;68.50
1453;DHT22;720;47.738;7.998;2022-07-29T15:22:37;23.30;68.60
1453;DHT22;720;47.738;7.998;2022-07-29T15:25:04;23.40;69.20
1453;DHT22;720;47.738;7.998;2022-07-29T15:27:31;23.30;67.90
1453;DHT22;720;47.738;7.998;2022-07-29T15:29:57;23.30;67.10
1453;DHT22;720;47.738;7.998;2022-07-29T15:32:22;23.20;68.80
1453;DHT22;720;47.738;7.998;2022-07-29T15:34:48;23.20;69.70
1453;DHT22;720;47.738;7.998;2022-07-29T15:37:14;23.20;68.50
1453;DHT22;720;47.738;7.998;2022-07-29T15:39:39;23.20;68.20
1453;DHT22;720;47.738;7.998;2022-07-29T15:42:05;23.20;67.50
1453;DHT22;720;47.738;7.998;2022-07-29T15:44:31;23.30;67.90
1453;DHT22;720;47.738;7.998;2022-07-29T15:46:57;23.20;67.30
1453;DHT22;720;47.738;7.998;2022-07-29T15:49:34;23.20;68.90
1453;DHT22;720;47.738;7.998;2022-07-29T15:52:02;23.10;69.00
1453;DHT22;720;47.738;7.998;2022-07-29T15:54:29;22.90;68.20
1453;DHT22;720;47.738;7.998;2022-07-29T15:56:54;22.80;68.70
1453;DHT22;720;47.738;7.998;2022-07-29T15:59:21;22.70;68.30
1453;DHT22;720;47.738;7.998;2022-07-29T16:01:47;22.60;70.20
1453;DHT22;720;47.738;7.998;2022-07-29T16:04:13;22.40;70.40
1453;DHT22;720;47.738;7.998;2022-07-29T16:06:38;22.40;70.20
1453;DHT22;720;47.738;7.998;2022-07-29T16:09:04;22.40;71.40
1453;DHT22;720;47.738;7.998;2022-07-29T16:11:30;22.50;69.00
1453;DHT22;720;47.738;7.998;2022-07-29T16:13:55;22.40;68.60
1453;DHT22;720;47.738;7.998;2022-07-29T16:16:21;22.30;67.60
1453;DHT22;720;47.738;7.998;2022-07-29T16:18:48;22.20;70.00
1453;DHT22;720;47.738;7.998;2022-07-29T16:21:15;22.30;71.60
1453;DHT22;720;47.738;7.998;2022-07-29T16:23:40;22.30;70.00
1453;DHT22;720;47.738;7.998;2022-07-29T16:26:06;22.20;68.90
1453;DHT22;720;47.738;7.998;2022-07-29T16:28:32;22.20;68.00
1453;DHT22;720;47.738;7.998;2022-07-29T16:30:58;22.20;68.90
1453;DHT22;720;47.738;7.998;2022-07-29T16:33:24;22.20;68.60
1453;DHT22;720;47.738;7.998;2022-07-29T16:35:50;22.20;68.70
1453;DHT22;720;47.738;7.998;2022-07-29T16:38:16;22.20;69.00
1453;DHT22;720;47.738;7.998;2022-07-29T16:40:42;22.30;69.20
1453;DHT22;720;47.738;7.998;2022-07-29T16:43:08;22.40;68.30
1453;DHT22;720;47.738;7.998;2022-07-29T16:45:34;22.30;68.60
1453;DHT22;720;47.738;7.998;2022-07-29T16:48:00;22.30;67.20
1453;DHT22;720;47.738;7.998;2022-07-29T16:50:27;22.30;67.80
1453;DHT22;720;47.738;7.998;2022-07-29T16:52:53;22.20;66.40
1453;DHT22;720;47.738;7.998;2022-07-29T16:55:19;22.10;66.50
1453;DHT22;720;47.738;7.998;2022-07-29T16:57:45;22.20;68.30
1453;DHT22;720;47.738;7.998;2022-07-29T17:00:12;22.30;66.90
1453;DHT22;720;47.738;7.998;2022-07-29T17:02:37;22.20;68.90
1453;DHT22;720;47.738;7.998;2022-07-29T17:05:07;22.20;71.10
1453;DHT22;720;47.738;7.998;2022-07-29T17:07:33;22.10;72.50